Time;durP1;ratioP1;P1;durP2;ratioP2;P2;SDS_P1;SDS_P2;PMS_P1;PMS_P2;Temp;Humidity;BMP_temperature;BMP_pressure;BME280_temperature;BME280_humidity;BME280_pressure;Samples;Min_cycle;Max_cycle;Signal;HPM_P1;HPM_P2
2022/04/30 00:02:12;;;;;;;11.77;6.80;;;9.60;99.90;;;;;;5067877;28;20032;-47
2022/04/30 00:04:45;;;;;;;13.35;7.32;;;9.60;99.90;;;;;;5068275;28;20021;-47
2022/04/30 00:07:16;;;;;;;10.88;6.90;;;9.60;99.90;;;;;;5066848;28;20036;-48
2022/04/30 00:09:42;;;;;;;13.07;7.25;;;9.60;99.90;;;;;;5068168;28;20025;-52
2022/04/30 00:12:12;;;;;;;13.63;7.65;;;9.60;99.90;;;;;;5067576;28;20020;-49
2022/04/30 00:14:38;;;;;;;12.45;7.18;;;9.60;99.90;;;;;;5066773;28;20020;-48
2022/04/30 00:17:04;;;;;;;15.98;7.30;;;9.60;99.90;;;;;;5067829;28;20402;-50
2022/04/30 00:19:30;;;;;;;18.60;7.68;;;9.50;99.90;;;;;;5068169;28;20024;-47
2022/04/30 00:21:56;;;;;;;11.50;6.38;;;9.60;99.90;;;;;;5067241;28;20198;-50
2022/04/30 00:24:26;;;;;;;10.52;6.45;;;9.60;99.90;;;;;;5067393;28;20028;-48
2022/04/30 00:26:53;;;;;;;10.35;6.90;;;9.60;99.90;;;;;;5066526;28;20390;-48
2022/04/30 00:29:18;;;;;;;11.02;6.45;;;9.60;99.90;;;;;;5066628;28;20029;-48
2022/04/30 00:31:44;;;;;;;25.05;8.35;;;9.60;99.90;;;;;;5067448;28;20024;-46
2022/04/30 00:34:09;;;;;;;11.45;6.85;;;9.60;99.90;;;;;;5067595;28;20448;-46
2022/04/30 00:36:35;;;;;;;8.75;6.15;;;9.60;99.90;;;;;;5067719;28;20477;-46
2022/04/30 00:39:02;;;;;;;12.10;6.65;;;9.60;99.90;;;;;;5067701;28;20477;-47
2022/04/30 00:41:28;;;;;;;14.65;7.15;;;9.70;99.90;;;;;;5066047;28;20021;-47
2022/04/30 00:43:54;;;;;;;14.18;6.53;;;9.70;99.90;;;;;;5067581;28;20522;-47
2022/04/30 00:46:21;;;;;;;14.20;6.38;;;9.60;99.90;;;;;;5067327;28;20115;-47
2022/04/30 00:48:48;;;;;;;10.70;6.38;;;9.60;99.90;;;;;;5065928;28;20501;-47
2022/04/30 00:51:16;;;;;;;12.07;6.70;;;9.60;99.90;;;;;;5066203;28;20201;-49
2022/04/30 00:53:49;;;;;;;11.63;5.93;;;9.60;99.90;;;;;;5066738;28;20028;-48
2022/04/30 00:56:18;;;;;;;9.73;6.55;;;9.60;99.90;;;;;;5067090;28;20550;-47
2022/04/30 00:58:47;;;;;;;10.35;5.75;;;9.50;99.90;;;;;;5067382;28;20115;-46
2022/04/30 01:01:14;;;;;;;14.80;6.95;;;9.50;99.90;;;;;;5067410;28;20024;-47
2022/04/30 01:03:39;;;;;;;10.95;5.75;;;9.50;99.90;;;;;;5066339;28;20033;-49
2022/04/30 01:06:06;;;;;;;12.52;7.10;;;9.50;99.90;;;;;;5065689;28;20040;-48
2022/04/30 01:08:32;;;;;;;16.00;7.18;;;9.60;99.90;;;;;;5067298;28;20028;-47
2022/04/30 01:11:00;;;;;;;12.85;6.70;;;9.50;99.90;;;;;;5067122;28;20035;-48
2022/04/30 01:13:28;;;;;;;11.77;6.72;;;9.50;99.90;;;;;;5066700;28;20059;-49
2022/04/30 01:15:56;;;;;;;15.38;7.43;;;9.40;99.90;;;;;;5067415;28;20017;-49
2022/04/30 01:18:22;;;;;;;12.63;6.93;;;9.40;99.90;;;;;;5067141;28;20123;-47
2022/04/30 01:20:51;;;;;;;12.60;7.00;;;9.30;99.90;;;;;;5066401;28;20107;-48
2022/04/30 01:23:18;;;;;;;15.75;6.97;;;9.20;99.90;;;;;;5067211;28;20078;-48
2022/04/30 01:25:46;;;;;;;15.95;6.40;;;9.30;99.90;;;;;;5066083;28;20032;-48
2022/04/30 01:28:12;;;;;;;12.88;6.75;;;9.20;99.90;;;;;;5066188;28;20442;-48
2022/04/30 01:30:38;;;;;;;13.27;6.50;;;9.10;99.90;;;;;;5067285;28;20085;-48
2022/04/30 01:38:32;;;;;;;12.23;6.60;;;9.20;99.90;;;;;;5071285;28;20046;-48
2022/04/30 01:40:58;;;;;;;20.17;7.03;;;9.20;99.90;;;;;;5070886;28;20024;-47
2022/04/30 01:43:24;;;;;;;18.25;7.13;;;9.20;99.90;;;;;;5070551;28;20024;-47
2022/04/30 01:45:50;;;;;;;11.13;6.40;;;9.20;99.90;;;;;;5071218;28;20497;-48
2022/04/30 01:48:16;;;;;;;13.45;6.70;;;9.20;99.90;;;;;;5071142;28;20046;-51
2022/04/30 01:50:43;;;;;;;11.30;6.47;;;9.20;99.90;;;;;;5071180;28;20431;-51
2022/04/30 01:53:12;;;;;;;17.77;7.32;;;9.20;99.90;;;;;;5070015;28;20032;-48
2022/04/30 01:55:38;;;;;;;10.25;6.22;;;9.10;99.90;;;;;;5071097;28;20522;-47
2022/04/30 01:58:04;;;;;;;15.88;6.75;;;9.10;99.90;;;;;;5069609;28;20112;-47
2022/04/30 02:00:32;;;;;;;11.88;7.15;;;9.10;99.90;;;;;;5071144;28;20310;-47
2022/04/30 02:03:07;;;;;;;13.48;7.00;;;9.00;99.90;;;;;;5070206;28;20025;-47
2022/04/30 02:05:35;;;;;;;11.77;6.43;;;9.00;99.90;;;;;;5071075;28;20021;-47
2022/04/30 02:08:09;;;;;;;13.40;6.70;;;9.00;99.90;;;;;;5070655;28;20123;-48
2022/04/30 02:10:39;;;;;;;21.02;7.22;;;8.90;99.90;;;;;;5070390;28;20028;-48
2022/04/30 02:13:06;;;;;;;13.13;6.75;;;8.90;99.90;;;;;;5070312;28;20405;-48
2022/04/30 02:15:33;;;;;;;11.10;6.68;;;8.80;99.90;;;;;;5071170;28;20028;-51
2022/04/30 02:18:00;;;;;;;16.92;7.05;;;8.80;99.90;;;;;;5070841;28;20024;-48
2022/04/30 02:20:29;;;;;;;11.35;6.55;;;8.80;99.90;;;;;;5070654;28;20033;-47
2022/04/30 02:23:01;;;;;;;10.25;6.60;;;8.80;99.90;;;;;;5069992;28;20051;-47
2022/04/30 02:25:28;;;;;;;10.82;6.35;;;8.70;99.90;;;;;;5070690;28;20428;-48
2022/04/30 02:27:59;;;;;;;13.35;7.03;;;8.70;99.90;;;;;;5069311;28;20020;-47
2022/04/30 02:30:27;;;;;;;13.70;6.85;;;8.70;99.90;;;;;;5070633;28;20021;-48
2022/04/30 02:32:55;;;;;;;11.52;6.35;;;8.70;99.90;;;;;;5070053;28;20037;-47
2022/04/30 02:35:24;;;;;;;17.83;7.07;;;8.70;99.90;;;;;;5070085;28;20038;-47
2022/04/30 02:37:52;;;;;;;15.05;6.72;;;8.70;99.90;;;;;;5070295;28;20478;-47
2022/04/30 02:40:19;;;;;;;11.00;6.18;;;8.70;99.90;;;;;;5069885;28;20021;-47
2022/04/30 02:42:46;;;;;;;13.10;6.50;;;8.80;99.90;;;;;;5069574;28;20021;-48
2022/04/30 02:45:13;;;;;;;10.60;6.75;;;8.80;99.90;;;;;;5069796;28;20028;-49
2022/04/30 02:47:39;;;;;;;8.60;6.07;;;8.80;99.90;;;;;;5069264;28;20035;-48
2022/04/30 02:50:07;;;;;;;9.88;6.20;;;8.70;99.90;;;;;;5070087;28;20059;-47
2022/04/30 02:52:33;;;;;;;16.38;5.63;;;8.80;99.90;;;;;;5069428;28;20025;-47
2022/04/30 02:54:58;;;;;;;9.98;6.10;;;8.70;99.90;;;;;;5069965;28;20414;-47
2022/04/30 02:57:24;;;;;;;10.85;6.45;;;8.70;99.90;;;;;;5069997;28;20020;-49
2022/04/30 02:59:55;;;;;;;8.80;5.88;;;8.70;99.90;;;;;;5069888;28;20028;-48
2022/04/30 03:02:24;;;;;;;10.25;5.95;;;8.70;99.90;;;;;;5068875;28;20024;-47
2022/04/30 03:04:53;;;;;;;13.90;6.20;;;8.60;99.90;;;;;;5069717;28;20036;-47
2022/04/30 03:07:19;;;;;;;9.95;5.97;;;8.60;99.90;;;;;;5069723;28;20024;-48
2022/04/30 03:09:48;;;;;;;12.02;5.75;;;8.60;99.90;;;;;;5069986;28;20527;-48
2022/04/30 03:12:15;;;;;;;17.33;7.05;;;8.60;99.90;;;;;;5067754;28;20028;-48
2022/04/30 03:14:42;;;;;;;15.50;7.63;;;8.60;99.90;;;;;;5069899;28;20024;-48
2022/04/30 03:22:37;;;;;;;12.00;5.50;;;8.50;99.90;;;;;;5068674;28;20032;-45
2022/04/30 03:25:02;;;;;;;13.10;5.80;;;8.40;99.90;;;;;;5069101;28;20477;-48
2022/04/30 03:27:28;;;;;;;9.00;5.90;;;8.40;99.90;;;;;;5069454;28;20024;-48
2022/04/30 03:29:53;;;;;;;13.27;6.03;;;8.40;99.90;;;;;;5068943;28;20035;-48
2022/04/30 03:32:24;;;;;;;11.48;5.72;;;8.30;99.90;;;;;;5068249;28;20108;-48
2022/04/30 03:34:50;;;;;;;9.82;5.93;;;8.20;99.90;;;;;;5069198;28;20641;-50
2022/04/30 03:37:15;;;;;;;15.27;6.35;;;8.20;99.90;;;;;;5069104;28;20017;-48
2022/04/30 03:39:41;;;;;;;12.68;6.28;;;8.10;99.90;;;;;;5068991;28;20024;-49
2022/04/30 03:42:07;;;;;;;9.50;5.78;;;8.10;99.90;;;;;;5068325;28;20096;-48
2022/04/30 03:44:32;;;;;;;17.15;6.43;;;8.10;99.90;;;;;;5069055;28;20525;-47
2022/04/30 03:46:57;;;;;;;16.55;6.97;;;8.00;99.90;;;;;;5068973;28;20025;-48
2022/04/30 03:49:23;;;;;;;12.48;6.45;;;8.00;99.90;;;;;;5068816;28;20390;-48
2022/04/30 03:51:49;;;;;;;15.57;6.35;;;7.90;99.90;;;;;;5067833;28;20024;-48
2022/04/30 03:54:14;;;;;;;17.00;7.40;;;7.90;99.90;;;;;;5068828;28;20033;-50
2022/04/30 03:56:40;;;;;;;14.82;7.38;;;7.80;99.90;;;;;;5068820;28;20020;-48
2022/04/30 03:59:06;;;;;;;11.05;7.03;;;7.80;99.90;;;;;;5068495;28;20096;-48
2022/04/30 04:01:32;;;;;;;14.98;6.63;;;7.80;99.90;;;;;;5067678;28;20039;-48
2022/04/30 04:04:00;;;;;;;13.20;6.40;;;7.80;99.90;;;;;;5069040;28;20052;-48
2022/04/30 04:06:26;;;;;;;11.52;7.38;;;7.70;99.90;;;;;;5068395;28;20070;-48
2022/04/30 04:08:52;;;;;;;15.43;7.45;;;7.80;99.90;;;;;;5068293;28;20032;-47
2022/04/30 04:11:18;;;;;;;17.73;7.40;;;7.80;99.90;;;;;;5068233;28;20032;-48
2022/04/30 04:19:12;;;;;;;14.18;6.57;;;7.90;99.90;;;;;;5068254;28;20615;-48
2022/04/30 04:21:37;;;;;;;12.77;6.53;;;7.90;99.90;;;;;;5067522;28;20107;-49
2022/04/30 04:26:48;;;;;;;13.68;5.95;;;8.10;99.90;;;;;;5068413;28;20035;-48
2022/04/30 04:29:16;;;;;;;14.27;7.28;;;8.10;99.90;;;;;;5068324;28;20128;-50
2022/04/30 04:31:42;;;;;;;12.32;7.20;;;8.20;99.90;;;;;;5067449;28;20086;-51
2022/04/30 04:34:08;;;;;;;13.43;6.72;;;8.20;99.90;;;;;;5066291;28;20050;-51
2022/04/30 04:36:33;;;;;;;10.88;7.47;;;8.30;99.90;;;;;;5067024;28;20037;-49
2022/04/30 04:38:59;;;;;;;11.85;7.38;;;8.30;99.90;;;;;;5068172;28;20052;-48
2022/04/30 04:41:24;;;;;;;13.50;7.63;;;8.40;99.90;;;;;;5068126;28;20370;-47
2022/04/30 04:43:49;;;;;;;15.02;7.55;;;8.40;99.90;;;;;;5067222;28;20060;-48
2022/04/30 04:46:15;;;;;;;16.63;7.57;;;8.50;99.90;;;;;;5067844;28;20618;-47
2022/04/30 04:48:41;;;;;;;23.95;8.27;;;8.50;99.90;;;;;;5066393;28;20031;-48
2022/04/30 04:51:06;;;;;;;14.68;8.23;;;8.60;99.90;;;;;;5067754;28;20056;-47
2022/04/30 04:53:32;;;;;;;15.60;8.10;;;8.60;99.90;;;;;;5066665;28;20024;-48
2022/04/30 04:55:59;;;;;;;14.57;7.60;;;8.60;99.90;;;;;;5067839;28;20115;-48
2022/04/30 04:58:25;;;;;;;17.35;7.80;;;8.50;99.90;;;;;;5067668;28;20020;-49
2022/04/30 05:00:50;;;;;;;15.82;7.28;;;8.60;99.90;;;;;;5067282;28;20527;-47
2022/04/30 05:03:16;;;;;;;11.73;6.45;;;8.60;99.90;;;;;;5067275;28;20070;-48
2022/04/30 05:05:41;;;;;;;14.75;7.35;;;8.60;99.90;;;;;;5067790;28;20028;-48
2022/04/30 05:08:07;;;;;;;12.98;7.28;;;8.60;99.90;;;;;;5067121;28;20048;-49
2022/04/30 05:10:33;;;;;;;17.60;8.00;;;8.60;99.90;;;;;;5067588;28;20032;-51
2022/04/30 05:12:58;;;;;;;14.27;7.00;;;8.60;99.90;;;;;;5066475;28;20013;-47
2022/04/30 05:15:24;;;;;;;16.35;8.32;;;8.60;99.90;;;;;;5067433;28;20036;-47
2022/04/30 05:17:49;;;;;;;14.82;8.85;;;8.50;99.90;;;;;;5067676;28;20319;-47
2022/04/30 05:20:15;;;;;;;13.15;7.75;;;8.40;99.90;;;;;;5067557;28;20119;-47
2022/04/30 05:22:40;;;;;;;21.88;8.63;;;8.50;99.90;;;;;;5066751;28;20399;-48
2022/04/30 05:25:06;;;;;;;19.08;7.45;;;8.40;99.90;;;;;;5067301;28;20028;-47
2022/04/30 05:27:32;;;;;;;16.65;8.45;;;8.50;99.90;;;;;;5067611;28;20342;-47
2022/04/30 05:29:57;;;;;;;13.75;7.60;;;8.60;99.90;;;;;;5067371;28;20496;-47
2022/04/30 05:32:23;;;;;;;13.02;7.57;;;8.60;99.90;;;;;;5066835;28;20025;-49
2022/04/30 05:34:48;;;;;;;15.30;8.60;;;8.60;99.90;;;;;;5067254;28;20024;-47
2022/04/30 05:37:14;;;;;;;11.55;6.63;;;8.60;99.90;;;;;;5066949;28;20043;-47
2022/04/30 05:39:39;;;;;;;19.15;8.32;;;8.70;99.90;;;;;;5067027;28;20126;-47
2022/04/30 05:42:05;;;;;;;18.42;8.60;;;8.70;99.90;;;;;;5066533;28;20020;-48
2022/04/30 05:44:31;;;;;;;16.05;7.82;;;8.80;99.90;;;;;;5067193;28;20591;-48
2022/04/30 05:46:56;;;;;;;14.38;7.82;;;8.90;99.90;;;;;;5067190;28;20166;-48
2022/04/30 05:49:22;;;;;;;16.17;7.72;;;9.00;99.90;;;;;;5066997;28;20090;-47
2022/04/30 05:51:49;;;;;;;18.58;8.23;;;9.00;99.90;;;;;;5066641;28;20060;-49
2022/04/30 05:54:15;;;;;;;16.40;7.60;;;9.10;99.90;;;;;;5067015;28;20025;-50
2022/04/30 05:56:40;;;;;;;20.52;7.70;;;9.10;99.90;;;;;;5067141;28;20031;-47
2022/04/30 05:59:06;;;;;;;20.25;7.90;;;9.20;99.90;;;;;;5067110;28;20024;-48
2022/04/30 06:01:31;;;;;;;14.45;7.72;;;9.30;99.90;;;;;;5066285;28;20466;-48
2022/04/30 06:03:57;;;;;;;20.48;8.60;;;9.40;99.90;;;;;;5067005;28;20024;-47
2022/04/30 06:06:23;;;;;;;17.40;7.65;;;9.50;99.90;;;;;;5067125;28;20037;-48
2022/04/30 06:08:49;;;;;;;13.50;7.15;;;9.60;99.90;;;;;;5066935;28;20421;-48
2022/04/30 06:11:14;;;;;;;15.07;7.47;;;9.80;99.90;;;;;;5066965;28;20024;-50
2022/04/30 06:13:40;;;;;;;12.68;7.50;;;9.90;99.90;;;;;;5065953;28;20043;-49
2022/04/30 06:16:05;;;;;;;11.65;6.72;;;10.10;99.90;;;;;;5066556;28;20067;-48
2022/04/30 06:18:31;;;;;;;18.80;7.75;;;10.30;99.90;;;;;;5066842;28;20229;-51
2022/04/30 06:20:56;;;;;;;16.00;7.00;;;10.30;99.90;;;;;;5067174;28;20282;-48
2022/04/30 06:23:22;;;;;;;17.58;8.15;;;10.20;99.90;;;;;;5067671;28;20029;-49
2022/04/30 06:25:48;;;;;;;14.52;7.28;;;10.30;99.90;;;;;;5068669;28;20470;-50
2022/04/30 06:28:14;;;;;;;18.65;7.30;;;10.30;99.90;;;;;;5070645;28;20036;-48
2022/04/30 06:30:40;;;;;;;14.48;7.43;;;10.30;99.90;;;;;;5069993;28;20025;-48
2022/04/30 06:33:06;;;;;;;17.55;7.47;;;10.40;99.90;;;;;;5069512;28;20020;-49
2022/04/30 06:35:32;;;;;;;18.00;7.07;;;10.30;99.90;;;;;;5070561;28;20367;-48
2022/04/30 06:37:57;;;;;;;12.57;6.57;;;10.40;99.90;;;;;;5070436;28;20021;-48
2022/04/30 06:40:23;;;;;;;14.68;7.55;;;10.50;99.90;;;;;;5069736;28;20033;-51
2022/04/30 06:42:48;;;;;;;10.18;6.55;;;10.60;99.90;;;;;;5069426;28;20095;-49
2022/04/30 06:45:16;;;;;;;14.68;7.03;;;10.60;99.90;;;;;;5070190;28;20134;-48
2022/04/30 06:47:42;;;;;;;16.65;6.85;;;10.70;99.90;;;;;;5069865;28;20457;-48
2022/04/30 06:50:08;;;;;;;14.05;7.60;;;10.80;99.90;;;;;;5069599;28;20105;-49
2022/04/30 06:52:34;;;;;;;12.82;6.15;;;10.80;99.90;;;;;;5069234;28;20025;-47
2022/04/30 06:57:45;;;;;;;28.90;7.63;;;11.00;99.90;;;;;;5069769;28;20267;-47
2022/04/30 07:03:08;;;;;;;16.48;5.88;;;11.10;99.90;;;;;;5075855;28;20064;-47
2022/04/30 07:05:34;;;;;;;14.07;6.47;;;11.10;99.90;;;;;;5069779;28;20021;-49
2022/04/30 07:07:59;;;;;;;10.82;5.72;;;11.10;99.90;;;;;;5069528;28;20360;-48
2022/04/30 07:10:25;;;;;;;11.57;6.03;;;11.30;99.90;;;;;;5069716;28;20123;-49
2022/04/30 07:12:50;;;;;;;16.60;6.15;;;11.40;99.90;;;;;;5069209;28;20024;-45
2022/04/30 07:15:16;;;;;;;16.25;5.53;;;11.50;99.90;;;;;;5069654;28;20162;-44
2022/04/30 07:17:41;;;;;;;9.52;5.28;;;11.60;99.90;;;;;;5069612;28;20040;-46
2022/04/30 07:20:09;;;;;;;9.27;5.60;;;11.60;99.90;;;;;;5069114;28;20419;-47
2022/04/30 07:22:35;;;;;;;12.48;5.40;;;11.70;99.90;;;;;;5068815;28;20158;-48
2022/04/30 07:25:00;;;;;;;13.02;6.00;;;11.80;99.90;;;;;;5068962;28;20206;-47
2022/04/30 07:27:25;;;;;;;14.65;5.90;;;11.80;99.90;;;;;;5069349;28;20021;-45
2022/04/30 07:29:51;;;;;;;12.30;5.85;;;11.90;99.90;;;;;;5069535;28;20463;-47
2022/04/30 07:32:16;;;;;;;9.57;5.57;;;11.90;99.90;;;;;;5068619;28;20024;-46
2022/04/30 07:34:42;;;;;;;10.80;5.88;;;12.00;99.90;;;;;;5069380;28;20043;-46
2022/04/30 07:37:11;;;;;;;11.70;6.93;;;12.00;99.90;;;;;;5068765;28;20016;-46
2022/04/30 07:39:37;;;;;;;11.73;5.30;;;12.00;99.90;;;;;;5068918;28;20146;-50
2022/04/30 07:42:03;;;;;;;14.38;7.18;;;12.20;99.90;;;;;;5068341;28;20279;-49
2022/04/30 07:44:30;;;;;;;14.88;5.80;;;12.10;99.90;;;;;;5068951;28;20133;-51
2022/04/30 07:46:58;;;;;;;11.88;6.30;;;12.00;99.90;;;;;;5068958;28;20043;-46
2022/04/30 07:49:25;;;;;;;16.02;6.38;;;12.10;99.90;;;;;;5068539;28;20031;-46
2022/04/30 07:51:55;;;;;;;12.93;6.00;;;12.00;99.90;;;;;;5068117;28;20024;-45
2022/04/30 07:54:27;;;;;;;14.77;5.20;;;12.00;99.90;;;;;;5068981;28;20021;-47
2022/04/30 07:56:54;;;;;;;14.43;5.53;;;12.10;99.90;;;;;;5068742;28;20029;-48
2022/04/30 07:59:21;;;;;;;15.00;5.30;;;12.20;99.90;;;;;;5068857;28;20066;-51
2022/04/30 08:01:47;;;;;;;11.23;5.32;;;12.30;99.90;;;;;;5068011;28;20020;-48
2022/04/30 08:04:13;;;;;;;14.10;5.68;;;12.30;99.90;;;;;;5068644;28;20056;-46
2022/04/30 08:06:38;;;;;;;11.15;5.45;;;12.30;99.90;;;;;;5068340;28;20117;-46
2022/04/30 08:09:04;;;;;;;12.88;5.43;;;12.30;99.90;;;;;;5068464;28;20451;-46
2022/04/30 08:11:29;;;;;;;22.73;6.82;;;12.30;99.90;;;;;;5067050;28;20131;-48
2022/04/30 08:13:55;;;;;;;7.78;5.72;;;12.30;99.90;;;;;;5067797;28;20028;-48
2022/04/30 08:16:20;;;;;;;10.18;5.32;;;12.30;99.90;;;;;;5068270;28;20051;-48
2022/04/30 08:18:46;;;;;;;10.48;5.20;;;12.10;99.90;;;;;;5067937;28;20021;-48
2022/04/30 08:21:11;;;;;;;14.63;5.30;;;12.20;99.90;;;;;;5068123;28;20509;-48
2022/04/30 08:23:37;;;;;;;14.32;4.53;;;12.20;99.90;;;;;;5067105;28;20131;-48
2022/04/30 08:26:03;;;;;;;18.33;5.00;;;12.20;99.90;;;;;;5068024;28;20029;-50
2022/04/30 08:28:29;;;;;;;8.40;4.80;;;12.20;99.90;;;;;;5067879;28;20104;-47
2022/04/30 08:30:54;;;;;;;8.80;5.40;;;12.20;99.90;;;;;;5068282;28;20028;-46
2022/04/30 08:33:20;;;;;;;11.07;5.63;;;12.30;99.90;;;;;;5067216;28;20028;-46
2022/04/30 08:35:46;;;;;;;11.43;5.72;;;12.30;99.90;;;;;;5066679;28;20016;-46
2022/04/30 08:38:12;;;;;;;11.98;5.40;;;12.30;99.90;;;;;;5068009;28;20025;-45
2022/04/30 08:40:41;;;;;;;11.77;5.25;;;12.40;99.90;;;;;;5066977;28;20024;-49
2022/04/30 08:43:09;;;;;;;14.00;5.35;;;12.50;99.90;;;;;;5066984;28;20032;-47
2022/04/30 08:45:39;;;;;;;12.05;5.47;;;12.70;99.90;;;;;;5067250;28;20059;-48
2022/04/30 08:48:15;;;;;;;13.05;5.18;;;12.80;99.90;;;;;;5067583;28;20036;-47
2022/04/30 08:50:44;;;;;;;16.27;5.93;;;13.00;99.90;;;;;;5067640;28;20596;-46
2022/04/30 08:53:10;;;;;;;11.07;4.65;;;12.90;99.90;;;;;;5067407;28;20055;-45
2022/04/30 08:55:36;;;;;;;10.15;5.20;;;13.10;99.90;;;;;;5067684;28;20028;-48
2022/04/30 08:58:02;;;;;;;11.50;4.80;;;13.30;98.80;;;;;;5066274;28;20070;-48
2022/04/30 09:00:28;;;;;;;10.10;4.53;;;13.40;99.70;;;;;;5067625;28;20025;-46
2022/04/30 09:02:57;;;;;;;8.88;5.22;;;13.40;99.80;;;;;;5066526;28;20035;-46
2022/04/30 09:05:29;;;;;;;11.00;5.18;;;13.40;98.80;;;;;;5066188;28;20044;-48
2022/04/30 09:07:59;;;;;;;10.10;4.47;;;13.40;99.70;;;;;;5067367;28;20036;-45
2022/04/30 09:10:30;;;;;;;13.90;5.00;;;13.40;98.40;;;;;;5066114;28;20116;-48
2022/04/30 09:13:14;;;;;;;11.10;5.88;;;13.40;98.40;;;;;;5066969;28;20103;-46
2022/04/30 09:15:44;;;;;;;8.68;5.20;;;13.40;99.00;;;;;;5067518;28;20020;-46
2022/04/30 09:18:11;;;;;;;8.68;4.45;;;13.50;98.80;;;;;;5067633;28;20044;-47
2022/04/30 09:20:51;;;;;;;10.18;5.25;;;13.70;98.20;;;;;;5067471;28;20027;-46
2022/04/30 09:23:31;;;;;;;8.30;5.38;;;14.00;98.30;;;;;;5066759;28;20021;-50
2022/04/30 09:25:58;;;;;;;15.80;5.10;;;14.30;97.40;;;;;;5067594;28;20308;-46
2022/04/30 09:28:29;;;;;;;9.60;4.78;;;14.60;97.20;;;;;;5066894;28;20170;-47
2022/04/30 09:31:11;;;;;;;;;;;14.90;95.60;;;;;;5067770;28;20443;-46
2022/04/30 09:33:38;;;;;;;7.50;4.38;;;15.40;95.30;;;;;;5066454;28;19983;-47
2022/04/30 09:38:53;;;;;;;10.98;4.68;;;15.70;92.60;;;;;;5067464;28;20031;-46
2022/04/30 09:41:27;;;;;;;14.15;4.80;;;15.50;93.80;;;;;;5066176;28;20036;-46
2022/04/30 09:44:04;;;;;;;7.43;4.95;;;15.80;92.40;;;;;;5066963;28;20055;-48
2022/04/30 09:46:30;;;;;;;7.60;3.67;;;16.00;92.10;;;;;;5067607;28;20032;-46
2022/04/30 09:54:27;;;;;;;8.55;3.40;;;19.30;79.40;;;;;;5067050;28;20070;-50
2022/04/30 09:56:53;;;;;;;11.68;4.57;;;20.40;77.60;;;;;;5067215;28;20012;-50
2022/04/30 09:59:22;;;;;;;7.13;4.60;;;20.50;70.80;;;;;;5070141;28;20031;-48
2022/04/30 10:01:49;;;;;;;7.45;3.40;;;20.30;67.60;;;;;;5070652;28;20085;-47
2022/04/30 10:04:16;;;;;;;8.05;4.40;;;19.40;71.80;;;;;;5070992;28;20020;-47
2022/04/30 10:06:43;;;;;;;6.88;3.90;;;19.00;72.60;;;;;;5070709;28;20028;-48
2022/04/30 10:09:14;;;;;;;10.05;3.92;;;18.40;73.00;;;;;;5070700;28;20370;-49
2022/04/30 10:12:01;;;;;;;9.23;4.15;;;18.00;74.80;;;;;;5069994;28;20051;-48
2022/04/30 10:15:05;;;;;;;6.47;3.13;;;17.70;75.90;;;;;;5069247;28;20397;-50
2022/04/30 10:17:36;;;;;;;13.15;4.35;;;17.70;76.90;;;;;;5070954;28;20028;-48
2022/04/30 10:20:12;;;;;;;8.15;3.78;;;17.70;74.90;;;;;;5070852;28;20386;-49
2022/04/30 10:22:49;;;;;;;7.07;4.28;;;17.70;75.90;;;;;;5069764;28;20563;-48
2022/04/30 10:25:14;;;;;;;8.38;3.70;;;18.10;75.20;;;;;;5070119;28;20051;-48
2022/04/30 10:27:41;;;;;;;8.00;4.18;;;18.30;72.50;;;;;;5070508;28;20445;-48
2022/04/30 10:30:24;;;;;;;14.45;4.53;;;18.60;72.90;;;;;;5070576;28;20020;-49
2022/04/30 10:33:06;;;;;;;8.60;3.40;;;19.20;72.60;;;;;;5069818;28;20024;-48
2022/04/30 10:35:36;;;;;;;14.90;3.70;;;20.30;71.90;;;;;;5070364;28;20099;-48
2022/04/30 10:38:21;;;;;;;6.70;3.78;;;21.00;68.50;;;;;;5070477;28;20343;-50
2022/04/30 10:40:47;;;;;;;9.00;4.03;;;21.70;63.50;;;;;;5070254;28;20099;-50
2022/04/30 10:43:37;;;;;;;6.22;3.17;;;22.10;64.90;;;;;;5069715;28;20027;-47
2022/04/30 10:46:05;;;;;;;;;;;23.20;64.10;;;;;;5069484;28;20119;-48
2022/04/30 10:48:32;;;;;;;8.55;3.67;;;22.70;57.80;;;;;;5070513;28;19908;-47
2022/04/30 10:51:09;;;;;;;6.45;3.60;;;22.70;59.30;;;;;;5070564;28;20031;-47
2022/04/30 10:53:38;;;;;;;5.75;3.90;;;22.80;58.80;;;;;;5069255;28;20036;-47
2022/04/30 10:56:05;;;;;;;8.73;3.67;;;22.30;59.20;;;;;;5070301;28;20680;-47
2022/04/30 10:58:31;;;;;;;6.97;4.18;;;22.00;59.40;;;;;;5070150;28;20425;-49
2022/04/30 11:00:58;;;;;;;9.95;3.70;;;21.20;59.60;;;;;;5069753;28;20093;-47
2022/04/30 11:03:27;;;;;;;7.78;3.42;;;21.10;61.40;;;;;;5069456;28;20025;-50
2022/04/30 11:05:53;;;;;;;7.43;4.50;;;21.30;61.00;;;;;;5069555;28;20020;-48
2022/04/30 11:08:18;;;;;;;5.85;3.05;;;20.40;63.20;;;;;;5069486;28;20410;-47
2022/04/30 11:10:54;;;;;;;12.52;4.40;;;20.10;65.00;;;;;;5069516;28;20422;-47
2022/04/30 11:13:21;;;;;;;5.85;3.80;;;19.20;61.90;;;;;;5068800;28;20505;-47
2022/04/30 11:15:47;;;;;;;6.55;3.75;;;19.10;63.70;;;;;;5070188;28;20062;-48
2022/04/30 11:18:13;;;;;;;6.60;3.85;;;19.10;63.80;;;;;;5070099;28;20047;-47
2022/04/30 11:20:39;;;;;;;12.77;4.93;;;19.00;65.70;;;;;;5069840;28;20845;-49
2022/04/30 11:23:05;;;;;;;6.70;3.97;;;18.60;66.20;;;;;;5068866;28;20090;-47
2022/04/30 11:25:39;;;;;;;8.98;4.43;;;18.60;66.00;;;;;;5069535;28;20024;-50
2022/04/30 11:28:06;;;;;;;7.88;4.55;;;19.20;67.10;;;;;;5069408;28;20052;-49
2022/04/30 11:30:40;;;;;;;7.32;4.10;;;19.70;66.20;;;;;;5069648;28;20029;-46
2022/04/30 11:33:06;;;;;;;9.93;3.35;;;20.90;62.50;;;;;;5068639;28;20048;-48
2022/04/30 11:35:32;;;;;;;9.38;3.92;;;22.20;60.60;;;;;;5068197;28;20024;-48
2022/04/30 11:37:58;;;;;;;9.93;4.53;;;23.30;60.20;;;;;;5069081;28;20020;-46
2022/04/30 11:40:25;;;;;;;11.55;3.35;;;22.90;56.50;;;;;;5067995;28;20108;-46
2022/04/30 11:42:58;;;;;;;5.70;3.22;;;23.50;54.90;;;;;;5050801;28;20017;-47
2022/04/30 11:45:26;;;;;;;8.98;3.28;;;23.70;53.00;;;;;;5068829;28;20021;-47
2022/04/30 11:47:51;;;;;;;6.20;3.63;;;24.50;55.00;;;;;;5069063;28;20543;-48
2022/04/30 11:50:17;;;;;;;11.32;3.88;;;24.50;54.60;;;;;;5067701;28;20028;-48
2022/04/30 11:52:43;;;;;;;9.52;3.50;;;24.60;51.30;;;;;;5068245;28;20056;-48
2022/04/30 11:55:09;;;;;;;8.48;3.47;;;24.90;51.00;;;;;;5068363;28;20036;-51
2022/04/30 11:57:40;;;;;;;7.00;3.80;;;25.40;52.10;;;;;;5067591;28;20056;-47
2022/04/30 12:00:07;;;;;;;4.78;3.28;;;25.50;53.30;;;;;;5068697;28;20032;-50
2022/04/30 12:02:32;;;;;;;9.00;3.28;;;25.40;52.80;;;;;;5068301;28;20072;-48
2022/04/30 12:05:03;;;;;;;6.40;2.92;;;24.90;53.40;;;;;;5068865;28;20043;-47
2022/04/30 12:07:36;;;;;;;4.53;2.88;;;24.50;50.30;;;;;;5068385;28;20032;-47
2022/04/30 12:10:01;;;;;;;7.10;3.55;;;24.00;54.60;;;;;;5068587;28;20063;-50
2022/04/30 12:12:28;;;;;;;8.32;3.33;;;23.80;51.60;;;;;;5066144;28;20047;-47
2022/04/30 12:14:56;;;;;;;6.65;3.40;;;23.30;54.50;;;;;;5068586;28;20032;-48
2022/04/30 12:17:32;;;;;;;4.80;2.90;;;23.40;54.10;;;;;;5068359;28;20093;-49
2022/04/30 12:25:48;;;;;;;9.35;3.70;;;22.50;55.30;;;;;;5068368;28;20409;-47
2022/04/30 12:28:14;;;;;;;7.05;3.70;;;22.10;58.20;;;;;;5068252;28;20024;-48
2022/04/30 12:30:53;;;;;;;7.72;4.18;;;22.00;54.20;;;;;;5067683;28;20032;-48
2022/04/30 12:33:19;;;;;;;10.20;4.45;;;21.80;55.50;;;;;;5067250;28;20525;-49
2022/04/30 12:35:55;;;;;;;11.55;4.70;;;21.70;55.20;;;;;;5067920;28;20029;-48
2022/04/30 12:38:21;;;;;;;10.18;4.40;;;21.80;56.00;;;;;;5067772;28;20024;-47
2022/04/30 12:40:47;;;;;;;6.38;4.13;;;21.10;53.80;;;;;;5067910;28;20394;-48
2022/04/30 12:43:14;;;;;;;5.93;3.03;;;21.40;55.50;;;;;;5067304;28;20101;-48
2022/04/30 12:45:47;;;;;;;7.95;3.70;;;21.00;58.20;;;;;;5067910;28;20504;-49
2022/04/30 12:48:14;;;;;;;7.35;3.40;;;21.10;57.30;;;;;;5067818;28;20270;-48
2022/04/30 12:50:40;;;;;;;7.63;3.80;;;21.20;57.90;;;;;;5067697;28;20583;-48
2022/04/30 12:53:09;;;;;;;7.45;3.83;;;21.10;58.30;;;;;;5065790;28;20020;-45
2022/04/30 12:55:42;;;;;;;5.10;3.22;;;21.40;56.70;;;;;;5067745;28;20058;-47
2022/04/30 12:58:08;;;;;;;7.00;3.95;;;21.30;56.40;;;;;;5066338;28;20143;-47
2022/04/30 13:00:34;;;;;;;6.70;3.22;;;21.20;57.10;;;;;;5067530;28;20091;-47
2022/04/30 13:03:00;;;;;;;10.70;5.05;;;21.00;57.60;;;;;;5066630;28;20035;-47
2022/04/30 13:05:27;;;;;;;12.23;5.10;;;20.90;56.50;;;;;;5067621;28;20025;-46
2022/04/30 13:07:53;;;;;;;13.65;5.15;;;20.80;57.70;;;;;;5067553;28;20046;-50
2022/04/30 13:15:47;;;;;;;7.90;4.45;;;19.80;58.90;;;;;;5067834;28;20043;-47
2022/04/30 13:18:13;;;;;;;7.55;4.00;;;19.80;58.80;;;;;;5067948;28;20016;-48
2022/04/30 13:20:38;;;;;;;5.07;3.50;;;19.90;60.20;;;;;;5067742;28;20036;-48
2022/04/30 13:23:04;;;;;;;9.95;3.75;;;20.00;59.50;;;;;;5067186;28;20077;-47
2022/04/30 13:25:30;;;;;;;3.80;2.90;;;20.10;57.20;;;;;;5066235;28;20397;-47
2022/04/30 13:27:56;;;;;;;10.82;3.42;;;19.80;58.00;;;;;;5067500;28;20025;-47
2022/04/30 13:30:23;;;;;;;7.18;2.90;;;19.50;57.90;;;;;;5067397;28;20035;-47
2022/04/30 13:32:48;;;;;;;9.93;2.95;;;19.50;58.90;;;;;;5067909;28;20029;-47